Time;durP1;ratioP1;P1;durP2;ratioP2;P2;SDS_P1;SDS_P2;PMS_P1;PMS_P2;Temp;Humidity;BMP_temperature;BMP_pressure;BME280_temperature;BME280_humidity;BME280_pressure;Samples;Min_cycle;Max_cycle;Signal;HPM_P1;HPM_P2
2021/12/24 00:01:39;;;;;;;12.9;8.5;;;;;;;;;;;;;
2021/12/24 00:04:04;;;;;;;15;9.2;;;;;;;;;;;;;
2021/12/24 00:06:30;;;;;;;13.1;9.6;;;;;;;;;;;;;
2021/12/24 00:08:55;;;;;;;13;8.1;;;;;;;;;;;;;
2021/12/24 00:11:20;;;;;;;11.7;7.4;;;;;;;;;;;;;
2021/12/24 00:13:48;;;;;;;10.1;6.9;;;;;;;;;;;;;
2021/12/24 00:16:19;;;;;;;10.3;6.9;;;;;;;;;;;;;
2021/12/24 00:18:43;;;;;;;8;5.7;;;;;;;;;;;;;
2021/12/24 00:35:33;;;;;;;11.5;7.4;;;;;;;;;;;;;
2021/12/24 00:38:01;;;;;;;10.9;6.7;;;;;;;;;;;;;
2021/12/24 00:40:23;;;;;;;11.7;7.1;;;;;;;;;;;;;
2021/12/24 00:42:50;;;;;;;13.5;8.2;;;;;;;;;;;;;
2021/12/24 00:45:15;;;;;;;14;7.9;;;;;;;;;;;;;
2021/12/24 00:47:40;;;;;;;13.3;8.3;;;;;;;;;;;;;
2021/12/24 00:50:09;;;;;;;15.1;8.2;;;;;;;;;;;;;
2021/12/24 00:52:46;;;;;;;13.5;8.6;;;;;;;;;;;;;
2021/12/24 00:55:06;;;;;;;11.1;7.6;;;;;;;;;;;;;
2021/12/24 00:57:21;;;;;;;9.1;5.8;;;;;;;;;;;;;
2021/12/24 00:59:46;;;;;;;10.6;5.7;;;;;;;;;;;;;
2021/12/24 01:02:12;;;;;;;6;4.8;;;;;;;;;;;;;
2021/12/24 01:04:37;;;;;;;5.9;4.2;;;;;;;;;;;;;
2021/12/24 01:07:03;;;;;;;4.1;3.4;;;;;;;;;;;;;
2021/12/24 01:09:28;;;;;;;6.4;4.3;;;;;;;;;;;;;
2021/12/24 01:11:54;;;;;;;4.6;3.7;;;;;;;;;;;;;
2021/12/24 01:14:21;;;;;;;5.5;3.4;;;;;;;;;;;;;
2021/12/24 01:16:53;;;;;;;3.6;2.6;;;;;;;;;;;;;
2021/12/24 01:19:17;;;;;;;4.1;2.8;;;;;;;;;;;;;
2021/12/24 01:21:58;;;;;;;3.5;2.6;;;;;;;;;;;;;
2021/12/24 01:24:06;;;;;;;4.6;3.1;;;;;;;;;;;;;
2021/12/24 01:26:37;;;;;;;3.3;2.4;;;;;;;;;;;;;
2021/12/24 01:29:19;;;;;;;3.3;2.4;;;;;;;;;;;;;
2021/12/24 01:38:48;;;;;;;1.8;1.7;;;;;;;;;;;;;
2021/12/24 01:41:08;;;;;;;2;1.6;;;;;;;;;;;;;
2021/12/24 01:43:23;;;;;;;2.6;1.5;;;;;;;;;;;;;
2021/12/24 01:45:49;;;;;;;2.9;1.9;;;;;;;;;;;;;
2021/12/24 01:48:14;;;;;;;2.8;1.9;;;;;;;;;;;;;
2021/12/24 01:50:39;;;;;;;1.6;1.4;;;;;;;;;;;;;
2021/12/24 01:53:05;;;;;;;2.4;1.6;;;;;;;;;;;;;
2021/12/24 01:55:30;;;;;;;1.6;1.3;;;;;;;;;;;;;
2021/12/24 01:57:55;;;;;;;3.2;1.9;;;;;;;;;;;;;
2021/12/24 02:00:20;;;;;;;2.7;1.7;;;;;;;;;;;;;
2021/12/24 02:02:47;;;;;;;2.1;1.7;;;;;;;;;;;;;
2021/12/24 02:05:12;;;;;;;2.3;2;;;;;;;;;;;;;
2021/12/24 02:07:38;;;;;;;2.3;2.1;;;;;;;;;;;;;
2021/12/24 02:10:03;;;;;;;2.6;2.1;;;;;;;;;;;;;
2021/12/24 02:12:32;;;;;;;2.1;1.5;;;;;;;;;;;;;
2021/12/24 02:14:58;;;;;;;4;2.7;;;;;;;;;;;;;
2021/12/24 02:17:39;;;;;;;4.3;3.1;;;;;;;;;;;;;
2021/12/24 02:29:26;;;;;;;10.7;6.1;;;;;;;;;;;;;
2021/12/24 02:31:52;;;;;;;17.2;9.6;;;;;;;;;;;;;
2021/12/24 02:34:17;;;;;;;14.2;8.8;;;;;;;;;;;;;
2021/12/24 02:36:43;;;;;;;13.3;9;;;;;;;;;;;;;
2021/12/24 02:39:08;;;;;;;14;8.5;;;;;;;;;;;;;
2021/12/24 02:41:35;;;;;;;12.9;8.1;;;;;;;;;;;;;
2021/12/24 02:44:00;;;;;;;10.8;6.3;;;;;;;;;;;;;
2021/12/24 02:46:33;;;;;;;9.5;6.4;;;;;;;;;;;;;
2021/12/24 02:49:10;;;;;;;8.5;5.7;;;;;;;;;;;;;
2021/12/24 02:54:42;;;;;;;8;5.4;;;;;;;;;;;;;
2021/12/24 02:56:08;;;;;;;7;5.1;;;;;;;;;;;;;
2021/12/24 02:58:32;;;;;;;6.3;4.7;;;;;;;;;;;;;
2021/12/24 03:00:57;;;;;;;6.1;4.4;;;;;;;;;;;;;
2021/12/24 03:03:23;;;;;;;8.8;6.3;;;;;;;;;;;;;
2021/12/24 03:05:48;;;;;;;8.7;6.4;;;;;;;;;;;;;
2021/12/24 03:08:13;;;;;;;12.6;9.1;;;;;;;;;;;;;
2021/12/24 03:10:39;;;;;;;14.7;9;;;;;;;;;;;;;
2021/12/24 03:13:04;;;;;;;8;5.3;;;;;;;;;;;;;
2021/12/24 03:15:34;;;;;;;7.9;5.1;;;;;;;;;;;;;
2021/12/24 03:18:01;;;;;;;10.1;6.6;;;;;;;;;;;;;
2021/12/24 03:20:32;;;;;;;8.1;6.3;;;;;;;;;;;;;
2021/12/24 03:23:05;;;;;;;5.3;4.5;;;;;;;;;;;;;
2021/12/24 03:25:17;;;;;;;5.6;4.7;;;;;;;;;;;;;
2021/12/24 03:27:42;;;;;;;5.6;4.5;;;;;;;;;;;;;
2021/12/24 03:30:07;;;;;;;5.7;3.9;;;;;;;;;;;;;
2021/12/24 03:32:34;;;;;;;4.5;3.4;;;;;;;;;;;;;
2021/12/24 03:34:59;;;;;;;4.8;3.6;;;;;;;;;;;;;
2021/12/24 03:37:25;;;;;;;5.6;4.2;;;;;;;;;;;;;
2021/12/24 03:39:50;;;;;;;6.1;4.9;;;;;;;;;;;;;
2021/12/24 03:42:15;;;;;;;7.1;5.8;;;;;;;;;;;;;
2021/12/24 03:44:44;;;;;;;6.8;5.9;;;;;;;;;;;;;
2021/12/24 03:47:10;;;;;;;7.6;6.1;;;;;;;;;;;;;
2021/12/24 03:49:36;;;;;;;6.6;5.2;;;;;;;;;;;;;
2021/12/24 03:52:02;;;;;;;4.9;3.8;;;;;;;;;;;;;
2021/12/24 03:56:47;;;;;;;4.7;3.4;;;;;;;;;;;;;
2021/12/24 03:59:13;;;;;;;5.4;3.7;;;;;;;;;;;;;
2021/12/24 04:02:34;;;;;;;4.6;3.8;;;;;;;2.59;99.23535;931.0419;;;;
2021/12/24 04:04:59;;;;;;;5.7;4.4;;;;;;;2.62;97.63672;930.9578;;;;
2021/12/24 04:07:24;;;;;;;5.4;4.2;;;;;;;2.4;98.4502;930.9553;;;;
2021/12/24 04:10:01;;;;;;;6.3;3.8;;;;;;;2.26;99.53809;931.0143;;;;
2021/12/24 04:12:18;;;;;;;6.4;3.3;;;;;;;2.36;100;930.9313;;;;
2021/12/24 04:14:44;;;;;;;5.1;3.8;;;;;;;2.16;100;930.949;;;;
2021/12/24 04:17:13;;;;;;;4.9;4.2;;;;;;;2.18;100;930.8013;;;;
2021/12/24 04:24:56;;;;;;;5.6;4.1;;;;;;;2.18;100;930.8293;;;;
2021/12/24 04:27:04;;;;;;;5.3;3.6;;;;;;;2.2;100;930.8488;;;;
2021/12/24 04:29:29;;;;;;;5.8;4.1;;;;;;;2.2;100;930.7908;;;;
2021/12/24 04:32:09;;;;;;;6.3;4.3;;;;;;;2.16;100;930.8258;;;;
2021/12/24 04:34:26;;;;;;;21.3;16.8;;;;;;;2.16;100;930.7866;;;;
2021/12/24 04:37:14;;;;;;;12.7;8.3;;;;;;;2.15;100;930.7556;;;;
2021/12/24 04:39:36;;;;;;;3.9;3.1;;;;;;;2.14;100;930.7255;;;;
2021/12/24 04:51:21;;;;;;;7;4.7;;;;;;;2.01;100;930.7053;;;;
2021/12/24 05:01:25;;;;;;;5.5;4.2;;;;;;;1.97;100;930.5941;;;;
2021/12/24 05:03:32;;;;;;;6.6;4.6;;;;;;;2.05;100;930.6546;;;;
2021/12/24 05:06:06;;;;;;;7.3;5.2;;;;;;;2.03;100;930.5647;;;;
2021/12/24 05:08:23;;;;;;;9;4.6;;;;;;;2.23;100;930.55;;;;
2021/12/24 05:10:45;;;;;;;8.8;5.3;;;;;;;2.3;100;930.4978;;;;
2021/12/24 05:13:12;;;;;;;8;5.9;;;;;;;2.23;100;930.4991;;;;
2021/12/24 05:15:42;;;;;;;6.9;4.2;;;;;;;2.13;100;930.525;;;;
2021/12/24 05:18:16;;;;;;;4.3;3.2;;;;;;;1.82;100;930.5772;;;;
2021/12/24 05:22:59;;;;;;;4.2;3;;;;;;;1.96;100;930.6205;;;;
2021/12/24 05:25:24;;;;;;;4.3;2.9;;;;;;;1.89;100;930.5219;;;;
2021/12/24 05:27:51;;;;;;;4.9;3.1;;;;;;;2.01;100;930.5081;;;;
2021/12/24 05:30:19;;;;;;;3.5;2.8;;;;;;;2.17;100;930.3511;;;;
2021/12/24 05:32:44;;;;;;;2.3;1.9;;;;;;;2.35;100;930.4001;;;;
2021/12/24 05:35:10;;;;;;;3.7;2.6;;;;;;;2.49;100;930.405;;;;
2021/12/24 05:37:35;;;;;;;3.5;2.6;;;;;;;2.51;100;930.3387;;;;
2021/12/24 05:40:00;;;;;;;4;3.1;;;;;;;2.46;100;930.4655;;;;
2021/12/24 05:42:27;;;;;;;3.7;3.1;;;;;;;2.32;100;930.3868;;;;
2021/12/24 05:44:51;;;;;;;5.3;2.9;;;;;;;2.23;100;930.4348;;;;
2021/12/24 05:47:18;;;;;;;5.9;3.8;;;;;;;2.32;100;930.4387;;;;
2021/12/24 05:49:43;;;;;;;6.5;3.7;;;;;;;2.38;100;930.4716;;;;
2021/12/24 05:52:10;;;;;;;6.8;3.9;;;;;;;2.44;99.58984;930.5027;;;;
2021/12/24 05:54:36;;;;;;;6.1;4.2;;;;;;;2.45;99.0791;930.5406;;;;
2021/12/24 05:57:02;;;;;;;7.3;4.8;;;;;;;2.48;98.89453;930.5391;;;;
2021/12/24 05:59:28;;;;;;;15.7;5.1;;;;;;;2.28;99.64355;930.5428;;;;
2021/12/24 06:01:54;;;;;;;8.5;5.1;;;;;;;2.21;100;930.478;;;;
2021/12/24 06:04:19;;;;;;;9.6;5.5;;;;;;;2.15;100;930.4917;;;;
2021/12/24 06:06:46;;;;;;;10.7;5.9;;;;;;;2.2;99.78125;930.5229;;;;
2021/12/24 06:09:11;;;;;;;11.3;5.8;;;;;;;2.12;99.7168;930.4673;;;;
2021/12/24 06:11:39;;;;;;;16.3;7.3;;;;;;;2.13;99.98828;930.4974;;;;
2021/12/24 06:14:10;;;;;;;12.8;7.3;;;;;;;2.2;99.21191;930.5678;;;;
2021/12/24 06:16:31;;;;;;;9.7;6.5;;;;;;;2.26;98.40527;930.5658;;;;
2021/12/24 06:19:01;;;;;;;10.7;6.7;;;;;;;2.29;98.39063;930.6649;;;;
2021/12/24 06:21:24;;;;;;;16.9;11;;;;;;;2.31;98.58594;930.6614;;;;
2021/12/24 06:23:49;;;;;;;17.2;10.9;;;;;;;2.33;98.53418;930.533;;;;
2021/12/24 06:26:15;;;;;;;18;11.4;;;;;;;2.34;97.71875;930.6433;;;;
2021/12/24 06:28:43;;;;;;;12.6;9;;;;;;;2.33;98.06543;930.658;;;;
2021/12/24 06:31:08;;;;;;;13.6;8.7;;;;;;;2.38;97.39258;930.6217;;;;
2021/12/24 06:33:34;;;;;;;14;8.6;;;;;;;2.17;98.16211;930.6133;;;;
2021/12/24 06:36:00;;;;;;;16.2;9.6;;;;;;;2.18;98.99316;930.6606;;;;
2021/12/24 06:38:25;;;;;;;23.3;14.6;;;;;;;1.9;99.99023;930.6353;;;;
2021/12/24 06:40:50;;;;;;;19.9;11.6;;;;;;;2.03;100;930.5898;;;;
2021/12/24 06:43:16;;;;;;;24.1;13.6;;;;;;;1.95;100;930.6325;;;;
2021/12/24 06:45:41;;;;;;;28.1;14.8;;;;;;;1.79;100;930.5162;;;;
2021/12/24 06:48:08;;;;;;;27.6;15.5;;;;;;;1.97;100;930.5586;;;;
2021/12/24 06:50:33;;;;;;;29.4;15.9;;;;;;;2.1;100;930.5871;;;;
2021/12/24 06:52:59;;;;;;;24.6;14.9;;;;;;;2.12;100;930.5891;;;;
2021/12/24 06:55:24;;;;;;;24.9;14.6;;;;;;;2.12;100;930.5631;;;;
2021/12/24 06:57:50;;;;;;;28.8;17.1;;;;;;;2.16;99.86035;930.466;;;;
2021/12/24 07:00:15;;;;;;;22.4;13.5;;;;;;;2.12;99.31445;930.6347;;;;
2021/12/24 07:02:43;;;;;;;39.5;15.1;;;;;;;2.12;100;930.6057;;;;
2021/12/24 07:05:08;;;;;;;18.9;11.9;;;;;;;2.21;100;930.6075;;;;
2021/12/24 07:07:35;;;;;;;19.6;12;;;;;;;2.23;99.53027;930.6177;;;;
2021/12/24 07:10:48;;;;;;;21;13;;;;;;;2.25;99.00977;930.6661;;;;
2021/12/24 07:13:13;;;;;;;21.2;13.9;;;;;;;2.17;98.85645;930.6495;;;;
2021/12/24 07:15:40;;;;;;;18.9;12.5;;;;;;;2.02;99.92871;930.7386;;;;
2021/12/24 07:18:06;;;;;;;18.1;11.5;;;;;;;1.86;100;930.801;;;;
2021/12/24 07:20:33;;;;;;;16.2;11.7;;;;;;;1.99;100;930.7523;;;;
2021/12/24 07:22:59;;;;;;;16.8;10;;;;;;;2.19;100;930.6077;;;;
2021/12/24 07:25:29;;;;;;;13.5;7.6;;;;;;;2.32;100;930.7433;;;;
2021/12/24 07:27:54;;;;;;;9.8;7.2;;;;;;;2.43;99.73535;930.6486;;;;
2021/12/24 07:30:23;;;;;;;9.5;5.8;;;;;;;2.4;99.99805;930.7095;;;;
2021/12/24 07:32:48;;;;;;;8.1;4.8;;;;;;;2.58;99.40137;930.75;;;;
2021/12/24 07:35:18;;;;;;;7.3;5;;;;;;;2.7;98.88867;930.7252;;;;
2021/12/24 07:37:43;;;;;;;8.4;5.2;;;;;;;2.77;97.89648;930.6916;;;;
2021/12/24 07:40:15;;;;;;;11.8;7.6;;;;;;;2.66;97.35645;930.6753;;;;
2021/12/24 07:42:39;;;;;;;15.5;10.9;;;;;;;2.62;97.50293;930.6027;;;;
2021/12/24 07:45:07;;;;;;;19.3;12.9;;;;;;;2.69;97.5752;930.5983;;;;
2021/12/24 07:47:37;;;;;;;14.9;9.6;;;;;;;2.84;96.99414;930.5167;;;;
2021/12/24 07:50:02;;;;;;;21.7;14.8;;;;;;;2.89;96.58008;930.4757;;;;
2021/12/24 07:52:21;;;;;;;25.3;16.1;;;;;;;2.94;96.84766;930.3819;;;;
2021/12/24 07:54:53;;;;;;;13.5;7.6;;;;;;;3.02;97.18066;930.4171;;;;
2021/12/24 07:57:15;;;;;;;19.6;13;;;;;;;3.17;96.92383;930.4113;;;;
2021/12/24 07:59:40;;;;;;;14.5;8.5;;;;;;;3.38;95.9834;930.4174;;;;
2021/12/24 08:02:09;;;;;;;24.8;16.8;;;;;;;3.5;95.40332;930.3959;;;;
2021/12/24 08:04:34;;;;;;;25.8;17.9;;;;;;;3.65;94.72949;930.4587;;;;
2021/12/24 08:07:02;;;;;;;37.3;25.3;;;;;;;3.73;93.8916;930.3831;;;;
2021/12/24 08:09:27;;;;;;;24.9;16.3;;;;;;;3.89;93.13184;930.3445;;;;
2021/12/24 08:11:53;;;;;;;31.1;20.7;;;;;;;3.96;93.06641;930.3058;;;;
2021/12/24 08:14:18;;;;;;;24.9;15.5;;;;;;;4.05;92.19629;930.4363;;;;
2021/12/24 08:16:49;;;;;;;31.6;21.4;;;;;;;4.01;91.59375;930.4064;;;;
2021/12/24 08:19:19;;;;;;;12.7;9;;;;;;;3.81;93.35938;930.3845;;;;
2021/12/24 08:21:45;;;;;;;18.3;11.5;;;;;;;4.07;93.02441;930.3778;;;;
2021/12/24 08:24:11;;;;;;;16;9.8;;;;;;;3.9;92.92871;930.3415;;;;
2021/12/24 08:26:36;;;;;;;37.2;21.1;;;;;;;3.96;93.07813;930.3909;;;;
2021/12/24 08:29:02;;;;;;;74.9;33.8;;;;;;;4.03;92.8916;930.3989;;;;
2021/12/24 08:33:52;;;;;;;71.5;30.4;;;;;;;4.28;92.26953;930.3027;;;;
2021/12/24 08:36:20;;;;;;;67;29.2;;;;;;;4.31;91.02637;930.3141;;;;
2021/12/24 08:38:45;;;;;;;60.1;28.9;;;;;;;4.29;91.53027;930.2216;;;;
2021/12/24 08:41:14;;;;;;;63.2;30.5;;;;;;;4.43;90.48047;930.2847;;;;
2021/12/24 08:43:39;;;;;;;29.6;17.8;;;;;;;4.14;91.71094;930.298;;;;
2021/12/24 08:46:09;;;;;;;33.5;17.6;;;;;;;4.38;91.56152;930.2305;;;;
2021/12/24 08:48:34;;;;;;;55.4;30.8;;;;;;;4.36;90.66797;930.2869;;;;
2021/12/24 08:51:00;;;;;;;51.1;29.6;;;;;;;4.49;90.2207;930.3093;;;;
2021/12/24 08:53:26;;;;;;;26.3;15.9;;;;;;;4.64;89.73633;930.2573;;;;
2021/12/24 08:55:54;;;;;;;24.9;15.6;;;;;;;4.81;89.43262;930.2449;;;;
2021/12/24 08:58:19;;;;;;;26.7;16.2;;;;;;;4.89;88.78516;930.2755;;;;
2021/12/24 09:00:45;;;;;;;43.1;24.9;;;;;;;4.95;87.87207;930.308;;;;
2021/12/24 09:03:10;;;;;;;45.9;28.2;;;;;;;4.92;87.59766;930.2073;;;;
2021/12/24 09:05:37;;;;;;;44.3;27.2;;;;;;;4.52;89.78906;930.1467;;;;
2021/12/24 09:08:03;;;;;;;38.6;25;;;;;;;4.7;90.14258;930.2054;;;;
2021/12/24 09:10:28;;;;;;;30.3;19.2;;;;;;;4.9;90.04004;930.0958;;;;
2021/12/24 09:12:53;;;;;;;39.9;23.8;;;;;;;5.01;88.92188;930.2297;;;;
2021/12/24 09:15:27;;;;;;;28.3;19;;;;;;;5.07;88.93555;930.2228;;;;
2021/12/24 09:17:54;;;;;;;22;14.4;;;;;;;5.22;88.48047;930.2918;;;;
2021/12/24 09:20:23;;;;;;;37.5;20.9;;;;;;;5.18;88.40527;930.35;;;;
2021/12/24 09:22:46;;;;;;;16.6;11.3;;;;;;;5.26;88.81641;930.1583;;;;
2021/12/24 09:25:10;;;;;;;16.6;11;;;;;;;5.4;88.87891;930.1959;;;;
2021/12/24 09:27:37;;;;;;;19;12.5;;;;;;;5.54;87.87109;930.2625;;;;
2021/12/24 09:30:02;;;;;;;16.5;9.3;;;;;;;5.58;87.28125;930.2536;;;;
2021/12/24 09:32:29;;;;;;;21.9;14;;;;;;;5.63;86.97461;930.1803;;;;
2021/12/24 09:34:54;;;;;;;16.7;11;;;;;;;4.92;89.7168;930.1418;;;;
2021/12/24 09:37:23;;;;;;;18;10.9;;;;;;;4.81;91.81152;930.1716;;;;
2021/12/24 09:39:48;;;;;;;16.2;10.5;;;;;;;4.94;91.45605;930.1636;;;;
2021/12/24 09:42:13;;;;;;;17.5;11.4;;;;;;;5.29;90.19824;930.1217;;;;
2021/12/24 09:44:38;;;;;;;17.4;11.9;;;;;;;5.5;88.97852;930.2231;;;;
2021/12/24 09:47:05;;;;;;;20.4;14;;;;;;;5.71;87.86035;930.0946;;;;
2021/12/24 09:49:31;;;;;;;20.1;13.2;;;;;;;5.93;86.65137;930.1275;;;;
2021/12/24 09:51:58;;;;;;;19;13.5;;;;;;;5.76;86.66406;930.07;;;;
2021/12/24 09:54:23;;;;;;;18.1;13.1;;;;;;;5.97;86.58008;930.1002;;;;
2021/12/24 09:56:49;;;;;;;27.2;18.3;;;;;;;5.99;85.08203;930.1646;;;;
2021/12/24 09:59:14;;;;;;;20.7;14.3;;;;;;;5.93;85.95117;930.1077;;;;
2021/12/24 10:01:42;;;;;;;15.5;10.6;;;;;;;5.88;86.26758;930.1312;;;;
2021/12/24 10:04:09;;;;;;;17.1;11.6;;;;;;;6.18;85.92285;930.0622;;;;
2021/12/24 10:07:25;;;;;;;19;12.1;;;;;;;5.98;86.44727;930.1116;;;;
2021/12/24 10:09:49;;;;;;;9.6;7.4;;;;;;;5.92;87.81348;930.0309;;;;
2021/12/24 10:12:13;;;;;;;8.4;5.9;;;;;;;6.13;87.30176;929.9785;;;;
2021/12/24 10:14:40;;;;;;;9.5;6.3;;;;;;;6.27;86.78906;930.0201;;;;
2021/12/24 10:17:06;;;;;;;8.3;6.5;;;;;;;6.19;86.11816;929.9501;;;;
2021/12/24 10:19:33;;;;;;;10.9;7.8;;;;;;;6.04;87.9502;929.8897;;;;
2021/12/24 10:22:03;;;;;;;11.4;8.3;;;;;;;6.12;87.25488;929.9302;;;;
2021/12/24 10:24:28;;;;;;;11.7;9.1;;;;;;;6.27;86.94727;929.9355;;;;
2021/12/24 10:26:58;;;;;;;12.2;9;;;;;;;6.54;86.67383;929.8804;;;;
2021/12/24 10:29:23;;;;;;;10.5;9;;;;;;;6.71;85.91602;929.8903;;;;
2021/12/24 10:31:49;;;;;;;11;8.9;;;;;;;6.8;85.3457;929.8502;;;;
2021/12/24 10:34:15;;;;;;;10.5;8.4;;;;;;;7.13;83.88281;929.868;;;;
2021/12/24 10:36:40;;;;;;;11.2;8.9;;;;;;;7.33;83.18359;929.9269;;;;
2021/12/24 10:39:05;;;;;;;11.8;8.5;;;;;;;7.29;83.83398;929.9645;;;;
2021/12/24 10:41:30;;;;;;;7.8;6.7;;;;;;;7.29;84.36816;929.9764;;;;
2021/12/24 10:43:55;;;;;;;8.2;6.3;;;;;;;7.24;85.27344;929.8137;;;;
2021/12/24 10:46:22;;;;;;;9.1;6.4;;;;;;;6.9;86.90527;929.8362;;;;
2021/12/24 10:48:58;;;;;;;9.8;6.7;;;;;;;7.13;86.97363;929.8528;;;;
2021/12/24 10:51:20;;;;;;;11.4;8.6;;;;;;;7.41;85.87598;929.9008;;;;
2021/12/24 10:53:36;;;;;;;21.4;13.7;;;;;;;6.92;87.12207;929.8586;;;;
2021/12/24 10:56:05;;;;;;;17.6;11.7;;;;;;;6.97;86.90723;929.8424;;;;
2021/12/24 10:58:30;;;;;;;13.6;10.3;;;;;;;7.25;85.50195;929.9294;;;;
2021/12/24 11:00:54;;;;;;;13;8.8;;;;;;;7.27;84.99609;929.863;;;;
2021/12/24 11:03:22;;;;;;;12;8;;;;;;;7.12;85.90723;929.8915;;;;
2021/12/24 11:05:47;;;;;;;15;8.1;;;;;;;7.19;85.83105;929.9064;;;;
2021/12/24 11:08:14;;;;;;;12.3;8.1;;;;;;;7.29;85.34277;929.8354;;;;
2021/12/24 11:10:39;;;;;;;10.4;8;;;;;;;7.43;85.03906;929.8939;;;;
2021/12/24 11:13:13;;;;;;;10.7;7.6;;;;;;;7.27;83.9082;929.8408;;;;
2021/12/24 11:15:45;;;;;;;14.8;9.8;;;;;;;7.1;85.33691;929.95;;;;
2021/12/24 11:18:15;;;;;;;17.8;12.8;;;;;;;6.97;85.71777;929.8962;;;;
2021/12/24 11:20:41;;;;;;;20.9;14.4;;;;;;;6.54;86.50391;929.882;;;;
2021/12/24 11:23:06;;;;;;;18.3;12.4;;;;;;;6.44;88.05469;929.6507;;;;
2021/12/24 11:25:31;;;;;;;16.9;11.9;;;;;;;6.38;88.14453;929.7264;;;;
2021/12/24 11:27:56;;;;;;;19.9;13.2;;;;;;;6.29;89.00781;929.6631;;;;
2021/12/24 11:30:22;;;;;;;18.7;13.6;;;;;;;6.42;88.71973;929.6506;;;;
2021/12/24 11:32:47;;;;;;;15.9;12.2;;;;;;;6.64;88.46875;929.5336;;;;
2021/12/24 11:35:15;;;;;;;19.1;14.2;;;;;;;6.74;88.28711;929.5687;;;;
2021/12/24 11:37:39;;;;;;;18.1;12.2;;;;;;;6.82;88.27051;929.349;;;;
2021/12/24 11:40:07;;;;;;;20.5;11.1;;;;;;;6.77;89.26465;929.3742;;;;
2021/12/24 11:42:38;;;;;;;13.7;9.6;;;;;;;6.96;89.0791;929.2693;;;;
2021/12/24 11:44:59;;;;;;;16.9;11.6;;;;;;;7.1;87.3418;929.301;;;;
2021/12/24 11:47:24;;;;;;;15;11.2;;;;;;;7.25;86.4668;929.1749;;;;
2021/12/24 11:49:52;;;;;;;20;14.1;;;;;;;7.45;86.06445;929.1447;;;;
2021/12/24 11:52:18;;;;;;;22.7;14.7;;;;;;;7.62;84.04688;929.1223;;;;
2021/12/24 11:54:43;;;;;;;17.8;11.8;;;;;;;7.62;84.78418;929.1183;;;;
2021/12/24 11:59:35;;;;;;;224.5;161.8;;;;;;;7.29;86.02051;929.0905;;;;
2021/12/24 12:02:00;;;;;;;24;16.7;;;;;;;6.94;86.13184;929.1505;;;;
2021/12/24 12:04:25;;;;;;;32.6;22.4;;;;;;;7.14;86.02637;929.0606;;;;
2021/12/24 12:06:51;;;;;;;29.1;20.2;;;;;;;7.12;85.83887;929.1911;;;;
2021/12/24 12:09:16;;;;;;;57.3;35.6;;;;;;;6.71;87.44434;929.2004;;;;
2021/12/24 12:11:41;;;;;;;20.1;14.6;;;;;;;6.45;89.04199;929.2413;;;;
2021/12/24 12:14:08;;;;;;;14.8;11.7;;;;;;;6.5;89.11914;929.1342;;;;
2021/12/24 12:16:39;;;;;;;42.1;28.1;;;;;;;6.47;89.32715;929.2477;;;;
2021/12/24 12:19:06;;;;;;;32;20;;;;;;;6.33;90.31641;929.1844;;;;
2021/12/24 12:21:40;;;;;;;21.5;14.4;;;;;;;6.39;90.4541;929.2064;;;;
2021/12/24 12:26:23;;;;;;;16.7;11.3;;;;;;;6.53;89.97363;929.1732;;;;
2021/12/24 12:28:48;;;;;;;17.7;12.1;;;;;;;6.68;88.76074;929.1726;;;;
2021/12/24 12:31:14;;;;;;;21.5;14.9;;;;;;;6.69;89.33984;929.1362;;;;
2021/12/24 12:33:41;;;;;;;17.7;12.1;;;;;;;6.7;90.04492;929.1403;;;;
2021/12/24 12:36:08;;;;;;;16.8;12.3;;;;;;;6.85;89.24902;929.0992;;;;
2021/12/24 12:38:33;;;;;;;17.4;12.2;;;;;;;6.95;88.99805;929.0881;;;;
2021/12/24 12:40:58;;;;;;;19.7;13.1;;;;;;;7.11;88.66016;929.1189;;;;
2021/12/24 12:43:24;;;;;;;17.6;12.9;;;;;;;7.19;87.65527;929.0823;;;;
2021/12/24 12:45:49;;;;;;;16.8;12.7;;;;;;;7.25;86.82813;929.0814;;;;
2021/12/24 12:48:22;;;;;;;19.2;13.5;;;;;;;7.15;86.62793;929.1334;;;;
2021/12/24 12:50:41;;;;;;;18.9;14.4;;;;;;;7.23;87.54004;928.9673;;;;
2021/12/24 12:53:09;;;;;;;30.1;20.4;;;;;;;7.27;87.32031;929.0276;;;;
2021/12/24 12:55:34;;;;;;;18.9;14.8;;;;;;;7.2;87.93848;928.9699;;;;
2021/12/24 12:58:00;;;;;;;22.1;16.3;;;;;;;7.31;87.79297;928.9495;;;;
2021/12/24 13:00:27;;;;;;;18.7;13.3;;;;;;;7.26;87.98535;928.9318;;;;
2021/12/24 13:02:53;;;;;;;18.4;12;;;;;;;7.36;87.88281;928.8129;;;;
2021/12/24 13:05:18;;;;;;;19.7;11.6;;;;;;;7.38;87.53516;928.8922;;;;
2021/12/24 13:07:44;;;;;;;19.7;13.1;;;;;;;7.44;87.35547;928.9055;;;;
2021/12/24 13:10:11;;;;;;;18.4;13.3;;;;;;;7.43;86.9209;928.8326;;;;
2021/12/24 13:12:36;;;;;;;17.6;13.4;;;;;;;7.34;87.08398;928.8452;;;;
2021/12/24 13:15:05;;;;;;;23.1;15.1;;;;;;;7.28;87.89844;928.7277;;;;
2021/12/24 13:17:28;;;;;;;18.4;13.4;;;;;;;7.32;87.24121;928.7454;;;;
2021/12/24 13:20:09;;;;;;;17.2;12;;;;;;;7.33;87.41113;928.7581;;;;
2021/12/24 13:22:29;;;;;;;26.8;19.1;;;;;;;7.18;89.0918;928.7054;;;;
2021/12/24 13:24:48;;;;;;;19.3;13.6;;;;;;;7.27;88.87305;928.6865;;;;
2021/12/24 13:27:13;;;;;;;16.7;12.5;;;;;;;7.4;88.07129;928.6856;;;;
2021/12/24 13:29:38;;;;;;;19.2;14.4;;;;;;;7.32;86.98926;928.7438;;;;
2021/12/24 13:32:04;;;;;;;18.8;12.4;;;;;;;7.29;86.96191;928.7024;;;;
2021/12/24 13:34:28;;;;;;;20.9;15.6;;;;;;;7.24;87.5752;928.7425;;;;
2021/12/24 13:36:55;;;;;;;39.2;25.5;;;;;;;7.3;86.99707;928.7017;;;;
2021/12/24 13:39:20;;;;;;;70.9;43.9;;;;;;;7.3;87.79102;928.6731;;;;
2021/12/24 13:41:46;;;;;;;58.9;35.5;;;;;;;7.36;87.23535;928.7274;;;;
2021/12/24 13:44:13;;;;;;;27.9;19.3;;;;;;;7.26;88.18945;928.6841;;;;
2021/12/24 13:46:38;;;;;;;33.7;22.7;;;;;;;7.33;87.5127;928.7256;;;;
2021/12/24 13:50:11;;;;;;;38.1;24.9;;;;;;;7.01;88.88672;928.7288;;;;
2021/12/24 13:56:19;;;;;;;25.6;18;;;;;;;7.25;88.34766;928.5304;;;;
2021/12/24 13:58:44;;;;;;;25.2;16.8;;;;;;;7.2;88.16504;928.5558;;;;
2021/12/24 14:01:09;;;;;;;31.5;22.4;;;;;;;7.24;87.93848;928.4686;;;;
2021/12/24 14:03:34;;;;;;;16.1;11.8;;;;;;;7.06;88.96582;928.5416;;;;
2021/12/24 14:06:00;;;;;;;16.5;12;;;;;;;7.03;89.47949;928.4559;;;;
2021/12/24 14:08:26;;;;;;;17.1;12;;;;;;;7.13;88.69531;928.3972;;;;
2021/12/24 14:10:51;;;;;;;17.6;12.1;;;;;;;7.13;88.07227;928.2903;;;;
2021/12/24 14:13:24;;;;;;;15.5;11.4;;;;;;;7.17;87.45898;928.3689;;;;
2021/12/24 14:15:58;;;;;;;12.1;8.7;;;;;;;7.07;88.64844;928.4459;;;;
2021/12/24 14:18:21;;;;;;;11.1;8.9;;;;;;;7.12;88.17285;928.2498;;;;
2021/12/24 14:21:00;;;;;;;97.7;59.6;;;;;;;7.14;88.06348;928.2706;;;;
2021/12/24 14:23:02;;;;;;;22;14.6;;;;;;;7.14;87.91797;928.3608;;;;
2021/12/24 14:25:28;;;;;;;16.7;12.7;;;;;;;6.96;88.02637;928.3958;;;;
2021/12/24 14:27:53;;;;;;;16.3;13.1;;;;;;;7.03;87.50879;928.3008;;;;
2021/12/24 14:30:18;;;;;;;17.3;12.2;;;;;;;7.09;87.37402;928.3177;;;;
2021/12/24 14:32:43;;;;;;;15.7;12.1;;;;;;;7.06;87.21973;928.3152;;;;
2021/12/24 14:35:12;;;;;;;15.9;13.6;;;;;;;6.75;88.04004;928.2326;;;;
2021/12/24 14:37:35;;;;;;;33.1;22;;;;;;;6.72;89.32324;928.3692;;;;
2021/12/24 14:39:59;;;;;;;65.7;34.5;;;;;;;6.7;89.61328;928.3533;;;;
2021/12/24 14:42:25;;;;;;;257.1;112.2;;;;;;;6.47;89.58887;928.3543;;;;
2021/12/24 14:44:50;;;;;;;32.3;19.3;;;;;;;6.45;90.1709;928.3209;;;;
2021/12/24 14:47:17;;;;;;;34.5;19.4;;;;;;;6.45;89.77734;928.2473;;;;
2021/12/24 14:49:42;;;;;;;17.6;12.6;;;;;;;6.38;90.99414;928.3311;;;;
2021/12/24 14:52:07;;;;;;;11.2;8;;;;;;;6.32;91.86523;928.344;;;;
2021/12/24 14:54:33;;;;;;;66;29.8;;;;;;;6.3;91.65723;928.3438;;;;
2021/12/24 14:56:58;;;;;;;25.6;14.5;;;;;;;6.26;92.2334;928.3561;;;;
2021/12/24 14:59:23;;;;;;;20.7;13.4;;;;;;;6.33;91.8877;928.3898;;;;
2021/12/24 15:01:51;;;;;;;18.9;13.3;;;;;;;6.36;90.86426;928.4075;;;;
2021/12/24 15:04:15;;;;;;;20;13.8;;;;;;;6.27;89.55664;928.3641;;;;
2021/12/24 15:06:41;;;;;;;21;14;;;;;;;6.18;89.6416;928.3732;;;;
2021/12/24 15:09:06;;;;;;;42.9;23.9;;;;;;;6.04;91.27246;928.4208;;;;
2021/12/24 15:11:32;;;;;;;46.4;28.4;;;;;;;6.04;91.6582;928.4256;;;;
2021/12/24 15:13:57;;;;;;;60.4;34.2;;;;;;;6.11;91.00488;928.4113;;;;
2021/12/24 15:16:28;;;;;;;62.6;37;;;;;;;5.93;92.26563;928.421;;;;
2021/12/24 15:18:54;;;;;;;52.6;33.2;;;;;;;5.96;92.24902;928.4553;;;;
2021/12/24 15:21:19;;;;;;;50.2;31.1;;;;;;;6.04;91.42969;928.4453;;;;
2021/12/24 15:23:47;;;;;;;53.3;32;;;;;;;5.8;92.36035;928.4316;;;;
2021/12/24 15:26:12;;;;;;;50.4;31.4;;;;;;;5.73;92.93359;928.4174;;;;
2021/12/24 15:28:38;;;;;;;47.5;30.1;;;;;;;5.83;92.36816;928.3911;;;;
2021/12/24 15:31:03;;;;;;;40.5;28.4;;;;;;;5.83;92.45898;928.3698;;;;
2021/12/24 15:33:29;;;;;;;39.9;27.4;;;;;;;5.83;92.27832;928.3461;;;;
2021/12/24 15:35:54;;;;;;;40.6;27.3;;;;;;;5.86;92.02441;928.3267;;;;
2021/12/24 15:38:21;;;;;;;87.1;51.9;;;;;;;5.9;91.67188;928.378;;;;
2021/12/24 15:40:46;;;;;;;60.5;39.4;;;;;;;5.85;91.53613;928.4537;;;;
2021/12/24 15:43:14;;;;;;;58.5;38.7;;;;;;;5.89;91.33105;928.4305;;;;
2021/12/24 15:45:38;;;;;;;61.9;39.6;;;;;;;5.89;91.11719;928.4297;;;;
2021/12/24 15:48:03;;;;;;;65.9;41.9;;;;;;;5.77;91.74512;928.5268;;;;
2021/12/24 15:50:29;;;;;;;56.9;38;;;;;;;5.76;91.94824;928.4517;;;;
2021/12/24 15:52:56;;;;;;;60.9;38.9;;;;;;;5.79;91.77344;928.4543;;;;
2021/12/24 15:55:25;;;;;;;69;42.8;;;;;;;5.75;91.78613;928.4177;;;;
2021/12/24 15:57:49;;;;;;;66.5;42.2;;;;;;;5.73;91.87109;928.4473;;;;
2021/12/24 16:00:16;;;;;;;66.3;41.7;;;;;;;5.74;91.0957;928.5478;;;;
2021/12/24 16:02:41;;;;;;;61.3;37.8;;;;;;;5.75;90.95215;928.4706;;;;
2021/12/24 16:05:10;;;;;;;63;39.9;;;;;;;5.73;91.19727;928.4814;;;;
2021/12/24 16:07:35;;;;;;;60.3;37.4;;;;;;;5.77;90.7627;928.5111;;;;
2021/12/24 16:10:00;;;;;;;59.5;38.1;;;;;;;5.75;91.01855;928.4934;;;;
2021/12/24 16:12:26;;;;;;;69.4;43.9;;;;;;;5.65;91.17969;928.3959;;;;
2021/12/24 16:14:52;;;;;;;90.6;53.6;;;;;;;5.64;91.23242;928.3643;;;;
2021/12/24 16:17:18;;;;;;;77.1;46.5;;;;;;;5.49;92.42969;928.3614;;;;
2021/12/24 16:19:43;;;;;;;63.7;39.2;;;;;;;5.49;92.82422;928.3022;;;;
2021/12/24 16:22:12;;;;;;;56.5;35.8;;;;;;;5.49;92.22852;928.2983;;;;
2021/12/24 16:24:36;;;;;;;56.8;35.6;;;;;;;5.47;92.03125;928.3998;;;;
2021/12/24 16:27:04;;;;;;;59.6;36.8;;;;;;;5.53;91.61328;928.3681;;;;
2021/12/24 16:29:34;;;;;;;63.2;40.9;;;;;;;5.39;91.68652;928.4427;;;;
2021/12/24 16:32:39;;;;;;;78.6;45.8;;;;;;;5.29;92.01465;928.3917;;;;
2021/12/24 16:35:04;;;;;;;77.9;45.7;;;;;;;5.32;92.41504;928.4631;;;;
2021/12/24 16:37:31;;;;;;;112.5;62.5;;;;;;;5.41;91.63574;928.5214;;;;